Terminal Aerodrome Forecast
Issued by NWS

Home | Current Version | Previous Version | Text Only | Print | Product List | Glossary On
Versions: 1 2 3 4 5 6 7 8 9 10 11 12 13 14 15 16 17 18 19 20 21 22 23 24 25 26 27 28
000
FTUS45 KTWC 112300
TAFOLS
TAF
KOLS 112322Z 1200/1224 26010KT P6SM VCTS SCT060CB BKN080
      TEMPO 1200/1202 VRB20G35KT 4SM TSRA BKN050CB
     FM120200 22007KT P6SM SCT060 BKN090
     FM120500 17005KT P6SM SCT090 BKN200
     FM120900 VRB03KT P6SM SCT090 SCT200
     FM121700 29007KT P6SM SCT060 SCT120
     FM122100 35007KT P6SM VCTS SCT060CB BKN120=

USA.gov is the U.S. government's official web portal to all federal, state and local government web resources and services.